Time;durP1;ratioP1;P1;durP2;ratioP2;P2;SDS_P1;SDS_P2;PMS_P1;PMS_P2;Temp;Humidity;BMP_temperature;BMP_pressure;BME280_temperature;BME280_humidity;BME280_pressure;Samples;Min_cycle;Max_cycle;Signal;HPM_P1;HPM_P2
2021/12/21 00:00:11;;;;;;;21.70;11.00;;;;;;;;;;5052954;28;44819;-80
2021/12/21 00:02:43;;;;;;;24.75;11.35;;;;;;;;;;5051633;28;43706;-81
2021/12/21 00:05:15;;;;;;;17.35;10.68;;;;;;;;;;5052429;28;44238;-80
2021/12/21 00:07:42;;;;;;;23.05;11.07;;;;;;;;;;5052145;28;43737;-81
2021/12/21 00:10:10;;;;;;;23.40;10.70;;;;;;;;;;5052172;28;45283;-80
2021/12/21 00:12:40;;;;;;;25.25;11.23;;;;;;;;;;5051556;28;45003;-80
2021/12/21 00:15:20;;;;;;;26.15;10.93;;;;;;;;;;5052101;28;43686;-80
2021/12/21 00:17:54;;;;;;;28.45;11.20;;;;;;;;;;5051154;28;42877;-80
2021/12/21 00:23:17;;;;;;;23.52;10.05;;;;;;;;;;5051337;28;44989;-80
2021/12/21 00:25:34;;;;;;;22.70;9.98;;;;;;;;;;5051614;28;42715;-80
2021/12/21 00:28:02;;;;;;;23.55;10.57;;;;;;;;;;5051048;28;42784;-81
2021/12/21 00:30:29;;;;;;;23.38;10.95;;;;;;;;;;5052065;28;43056;-81
2021/12/21 00:32:56;;;;;;;23.05;9.63;;;;;;;;;;5051227;28;45154;-80
2021/12/21 00:35:22;;;;;;;20.80;9.50;;;;;;;;;;5051900;28;42677;-80
2021/12/21 00:37:49;;;;;;;25.60;10.00;;;;;;;;;;5051408;28;45314;-80
2021/12/21 00:40:16;;;;;;;25.05;10.40;;;;;;;;;;5050981;28;42757;-80
2021/12/21 00:42:43;;;;;;;18.27;9.88;;;;;;;;;;5051233;28;43928;-80
2021/12/21 00:45:10;;;;;;;20.95;10.25;;;;;;;;;;5051503;28;45489;-80
2021/12/21 00:47:40;;;;;;;26.73;9.70;;;;;;;;;;5051193;28;44062;-80
2021/12/21 00:50:16;;;;;;;22.10;9.77;;;;;;;;;;5052219;28;44584;-80
2021/12/21 00:52:44;;;;;;;20.90;9.65;;;;;;;;;;5050626;28;44480;-80
2021/12/21 00:55:11;;;;;;;19.17;9.48;;;;;;;;;;5051459;28;42668;-80
2021/12/21 00:57:38;;;;;;;20.75;10.23;;;;;;;;;;5051093;28;43893;-80
2021/12/21 01:00:06;;;;;;;23.65;10.70;;;;;;;;;;5051186;28;43893;-80
2021/12/21 01:02:33;;;;;;;22.95;9.48;;;;;;;;;;5051375;28;44840;-80
2021/12/21 01:05:00;;;;;;;17.42;9.23;;;;;;;;;;5051300;28;44923;-80
2021/12/21 01:07:34;;;;;;;24.92;9.52;;;;;;;;;;5050341;28;44583;-80
2021/12/21 01:12:45;;;;;;;22.60;9.73;;;;;;;;;;5051013;28;42891;-80
2021/12/21 01:18:02;;;;;;;22.45;9.50;;;;;;;;;;5051020;28;44416;-80
2021/12/21 01:20:35;;;;;;;24.65;9.90;;;;;;;;;;5051065;28;44916;-80
2021/12/21 01:25:57;;;;;;;18.63;8.50;;;;;;;;;;5052468;28;20054;-80
2021/12/21 01:28:39;;;;;;;21.90;9.38;;;;;;;;;;5049828;28;43661;-80
2021/12/21 01:34:16;;;;;;;20.58;8.65;;;;;;;;;;5047421;28;44904;-79
2021/12/21 01:36:53;;;;;;;20.98;9.27;;;;;;;;;;5050604;28;44717;-80
2021/12/21 01:41:58;;;;;;;23.63;9.40;;;;;;;;;;5050063;28;44991;-80
2021/12/21 01:49:35;;;;;;;17.70;8.70;;;;;;;;;;5051403;28;43662;-80
2021/12/21 01:50:29;;;;;;;15.05;8.50;;;;;;;;;;5017199;28;45067;-80
2021/12/21 01:52:55;;;;;;;20.13;9.00;;;;;;;;;;5050591;28;45209;-80
2021/12/21 01:55:22;;;;;;;19.60;8.90;;;;;;;;;;5049811;28;43687;-80
2021/12/21 01:57:49;;;;;;;20.67;8.95;;;;;;;;;;5048907;28;44760;-80
2021/12/21 02:00:16;;;;;;;18.27;8.60;;;;;;;;;;5049967;28;45363;-80
2021/12/21 02:02:42;;;;;;;15.85;8.70;;;;;;;;;;5048114;28;43804;-79
2021/12/21 02:05:09;;;;;;;15.57;8.60;;;;;;;;;;5049347;28;44609;-80
2021/12/21 02:07:36;;;;;;;17.90;8.05;;;;;;;;;;5048279;28;43962;-81
2021/12/21 02:10:03;;;;;;;17.33;8.43;;;;;;;;;;5049835;28;42566;-81
2021/12/21 02:12:30;;;;;;;21.05;9.23;;;;;;;;;;5050203;28;43761;-80
2021/12/21 02:15:00;;;;;;;17.58;8.30;;;;;;;;;;5050715;28;44859;-80
2021/12/21 02:23:03;;;;;;;17.30;8.18;;;;;;;;;;5048721;28;42892;-79
2021/12/21 02:30:31;;;;;;;25.15;9.02;;;;;;;;;;5050716;28;42854;-80
2021/12/21 02:32:57;;;;;;;17.17;8.15;;;;;;;;;;5049412;28;45177;-81
2021/12/21 02:35:24;;;;;;;16.65;7.82;;;;;;;;;;5050454;28;43902;-80
2021/12/21 02:37:51;;;;;;;19.13;8.48;;;;;;;;;;5048930;28;44709;-80
2021/12/21 02:40:17;;;;;;;19.23;8.77;;;;;;;;;;5050299;28;43885;-80
2021/12/21 02:42:44;;;;;;;17.75;8.27;;;;;;;;;;5049406;28;45414;-80
2021/12/21 02:45:11;;;;;;;24.17;8.35;;;;;;;;;;5049408;28;44650;-80
2021/12/21 02:47:38;;;;;;;17.33;8.70;;;;;;;;;;5049219;28;44902;-80
2021/12/21 02:50:05;;;;;;;18.70;8.43;;;;;;;;;;5050253;28;44980;-80
2021/12/21 02:52:33;;;;;;;24.75;8.45;;;;;;;;;;5049385;28;45026;-80
2021/12/21 02:55:01;;;;;;;16.27;8.75;;;;;;;;;;5050167;28;41580;-80
2021/12/21 02:57:27;;;;;;;17.38;7.75;;;;;;;;;;5049383;28;44873;-79
2021/12/21 02:59:54;;;;;;;21.05;8.27;;;;;;;;;;5049609;28;42795;-80
2021/12/21 03:02:21;;;;;;;19.55;8.32;;;;;;;;;;5049246;28;45107;-80
2021/12/21 03:04:50;;;;;;;21.95;8.07;;;;;;;;;;5050719;28;43488;-80
2021/12/21 03:10:00;;;;;;;17.17;8.18;;;;;;;;;;5049622;28;43865;-80
2021/12/21 03:14:54;;;;;;;14.73;7.70;;;;;;;;;;5048914;28;42088;-80
2021/12/21 03:17:21;;;;;;;17.15;7.93;;;;;;;;;;5048937;28;43732;-80
2021/12/21 03:19:48;;;;;;;17.40;8.18;;;;;;;;;;5050138;28;43719;-80
2021/12/21 03:22:15;;;;;;;16.27;7.55;;;;;;;;;;5052499;28;43848;-80
2021/12/21 03:24:43;;;;;;;32.05;8.40;;;;;;;;;;5053830;28;43700;-79
2021/12/21 03:27:10;;;;;;;;;;;;;;;;;;5053834;28;44954;-80
2021/12/21 03:29:37;;;;;;;21.58;7.60;;;;;;;;;;5053676;28;43057;-80
2021/12/21 03:32:06;;;;;;;16.80;8.45;;;;;;;;;;5052266;28;43616;-80
2021/12/21 03:34:33;;;;;;;19.48;7.85;;;;;;;;;;5052950;28;42707;-79
2021/12/21 03:37:00;;;;;;;20.08;8.07;;;;;;;;;;5052122;28;42611;-80
2021/12/21 03:39:27;;;;;;;23.75;8.20;;;;;;;;;;5053108;28;44861;-79
2021/12/21 03:41:56;;;;;;;25.63;9.00;;;;;;;;;;5051539;28;44849;-80
2021/12/21 03:44:24;;;;;;;19.80;7.90;;;;;;;;;;5053153;28;43743;-80
2021/12/21 03:46:54;;;;;;;26.52;9.10;;;;;;;;;;5052656;28;45037;-80
2021/12/21 03:50:13;;;;;;;20.55;8.20;;;;;;;;;;5052040;28;44866;-80
2021/12/21 03:52:11;;;;;;;22.20;7.95;;;;;;;;;;5042045;28;44764;-80
2021/12/21 03:54:37;;;;;;;;;;;;;;;;;;5054105;28;44929;-80
2021/12/21 03:57:04;;;;;;;18.15;7.18;;;;;;;;;;5052384;28;43069;-80
2021/12/21 03:59:31;;;;;;;28.05;8.00;;;;;;;;;;5052626;28;44525;-79
2021/12/21 04:01:58;;;;;;;19.73;8.02;;;;;;;;;;5051070;28;44859;-79
2021/12/21 04:04:25;;;;;;;19.20;8.02;;;;;;;;;;5052451;28;43595;-79
2021/12/21 04:06:53;;;;;;;19.38;7.82;;;;;;;;;;5052053;28;43153;-79
2021/12/21 04:09:19;;;;;;;18.50;7.15;;;;;;;;;;5051813;28;42883;-79
2021/12/21 04:11:46;;;;;;;13.30;7.50;;;;;;;;;;5051876;28;44681;-80
2021/12/21 04:14:13;;;;;;;13.75;7.18;;;;;;;;;;5051812;28;43892;-80
2021/12/21 04:16:40;;;;;;;15.40;7.45;;;;;;;;;;5050160;28;44897;-80
2021/12/21 04:19:07;;;;;;;12.90;6.80;;;;;;;;;;5051709;28;44758;-79
2021/12/21 04:21:34;;;;;;;16.00;7.03;;;;;;;;;;5052188;28;43871;-79
2021/12/21 04:24:00;;;;;;;16.00;7.40;;;;;;;;;;5051637;28;43231;-79
2021/12/21 04:26:27;;;;;;;15.57;7.25;;;;;;;;;;5051265;28;45953;-79
2021/12/21 04:28:54;;;;;;;14.48;7.93;;;;;;;;;;5052081;28;45113;-80
2021/12/21 04:31:21;;;;;;;13.90;6.88;;;;;;;;;;5050565;28;43637;-79
2021/12/21 04:33:47;;;;;;;15.13;7.35;;;;;;;;;;5052116;28;44906;-79
2021/12/21 04:36:14;;;;;;;16.42;6.88;;;;;;;;;;5051701;28;44914;-80
2021/12/21 04:38:45;;;;;;;16.98;6.97;;;;;;;;;;5051537;28;44913;-79
2021/12/21 04:41:17;;;;;;;15.10;7.43;;;;;;;;;;5052429;28;42986;-80
2021/12/21 04:43:44;;;;;;;19.85;6.95;;;;;;;;;;5051657;28;42713;-79
2021/12/21 04:46:10;;;;;;;16.65;7.97;;;;;;;;;;5051375;28;43871;-81
2021/12/21 04:48:38;;;;;;;17.08;7.20;;;;;;;;;;5052048;28;42960;-79
2021/12/21 04:51:05;;;;;;;22.90;7.68;;;;;;;;;;5051084;28;44787;-79
2021/12/21 04:53:32;;;;;;;19.20;7.68;;;;;;;;;;5051311;28;43508;-79
2021/12/21 04:55:58;;;;;;;16.63;7.18;;;;;;;;;;5052109;28;44901;-79
2021/12/21 04:58:25;;;;;;;15.38;7.65;;;;;;;;;;5049997;28;43298;-79
2021/12/21 05:00:52;;;;;;;20.30;7.57;;;;;;;;;;5051823;28;45326;-79
2021/12/21 05:03:19;;;;;;;20.58;8.38;;;;;;;;;;5051468;28;45130;-79
2021/12/21 05:05:46;;;;;;;17.67;7.75;;;;;;;;;;5050877;28;43908;-79
2021/12/21 05:08:21;;;;;;;19.67;7.65;;;;;;;;;;5050982;28;43812;-79
2021/12/21 05:10:54;;;;;;;19.52;8.10;;;;;;;;;;5051353;28;42578;-79
2021/12/21 05:13:22;;;;;;;15.45;7.95;;;;;;;;;;5050377;28;43907;-79
2021/12/21 05:15:49;;;;;;;14.18;7.40;;;;;;;;;;5050824;28;43927;-79
2021/12/21 05:18:17;;;;;;;18.05;7.05;;;;;;;;;;5052143;28;20080;-79
2021/12/21 05:20:44;;;;;;;18.98;8.68;;;;;;;;;;5050860;28;45258;-79
2021/12/21 05:23:11;;;;;;;19.67;7.75;;;;;;;;;;5050456;28;43909;-79
2021/12/21 05:25:38;;;;;;;22.10;8.38;;;;;;;;;;5051510;28;44764;-79
2021/12/21 05:28:06;;;;;;;23.52;8.75;;;;;;;;;;5049923;28;43979;-79
2021/12/21 05:30:34;;;;;;;19.43;8.20;;;;;;;;;;5050499;28;44525;-79
2021/12/21 05:33:01;;;;;;;20.00;7.85;;;;;;;;;;5050168;28;43919;-79
2021/12/21 05:35:27;;;;;;;14.02;7.70;;;;;;;;;;5051164;28;45293;-79
2021/12/21 05:37:59;;;;;;;15.02;8.00;;;;;;;;;;5049932;28;43639;-79
2021/12/21 05:40:33;;;;;;;21.42;8.05;;;;;;;;;;5049938;28;43852;-79
2021/12/21 05:43:00;;;;;;;17.50;8.02;;;;;;;;;;5047633;28;45076;-79
2021/12/21 05:45:27;;;;;;;15.10;7.80;;;;;;;;;;5049109;28;44976;-79
2021/12/21 05:47:53;;;;;;;18.55;8.00;;;;;;;;;;5047996;28;42756;-79
2021/12/21 05:50:20;;;;;;;20.50;7.70;;;;;;;;;;5049500;28;44956;-79
2021/12/21 05:52:48;;;;;;;17.65;7.55;;;;;;;;;;5050407;28;42914;-79
2021/12/21 05:55:16;;;;;;;15.45;8.15;;;;;;;;;;5050569;28;42390;-79
2021/12/21 05:57:42;;;;;;;21.25;8.27;;;;;;;;;;5050106;28;43625;-79
2021/12/21 06:00:11;;;;;;;17.85;7.82;;;;;;;;;;5050724;28;44933;-78
2021/12/21 06:02:38;;;;;;;11.32;7.30;;;;;;;;;;5049552;28;43951;-80
2021/12/21 06:05:05;;;;;;;18.80;8.13;;;;;;;;;;5049963;28;44747;-80
2021/12/21 06:07:32;;;;;;;15.18;7.97;;;;;;;;;;5050786;28;42898;-79
2021/12/21 06:10:08;;;;;;;24.13;8.50;;;;;;;;;;5049957;28;44840;-79
2021/12/21 06:23:25;;;;;;;22.25;8.10;;;;;;;;;;5049070;28;42873;-79
2021/12/21 06:25:57;;;;;;;17.88;8.02;;;;;;;;;;5050307;28;43803;-79
2021/12/21 06:28:24;;;;;;;26.02;8.88;;;;;;;;;;5049939;28;44022;-79
2021/12/21 06:30:51;;;;;;;18.97;8.13;;;;;;;;;;5050510;28;20052;-79
2021/12/21 06:33:18;;;;;;;17.83;8.10;;;;;;;;;;5049717;28;45105;-79
2021/12/21 06:35:45;;;;;;;15.65;8.65;;;;;;;;;;5050198;28;44516;-79
2021/12/21 06:38:12;;;;;;;15.02;8.70;;;;;;;;;;5049134;28;44751;-79
2021/12/21 06:40:39;;;;;;;22.02;8.65;;;;;;;;;;5049937;28;43914;-78
2021/12/21 06:43:11;;;;;;;16.42;7.28;;;;;;;;;;5049521;28;45168;-79
2021/12/21 06:53:33;;;;;;;21.52;8.88;;;;;;;;;;5050052;28;44751;-78
2021/12/21 06:56:00;;;;;;;21.40;8.77;;;;;;;;;;5049610;28;45254;-79
2021/12/21 06:58:27;;;;;;;20.73;8.73;;;;;;;;;;5048702;28;45777;-79
2021/12/21 07:00:54;;;;;;;17.55;9.77;;;;;;;;;;5049533;28;45098;-78
2021/12/21 07:03:21;;;;;;;16.73;9.80;;;;;;;;;;5049251;28;43937;-78
2021/12/21 07:05:50;;;;;;;20.05;10.63;;;;;;;;;;5049188;28;44660;-79
2021/12/21 07:08:21;;;;;;;20.98;9.77;;;;;;;;;;5049161;28;42962;-79
2021/12/21 07:11:08;;;;;;;13.40;8.38;;;;;;;;;;5049596;28;44883;-79
2021/12/21 07:19:05;;;;;;;20.70;9.55;;;;;;;;;;5048976;28;42405;-79
2021/12/21 07:21:32;;;;;;;22.73;10.70;;;;;;;;;;5048625;28;46046;-78
2021/12/21 07:23:59;;;;;;;23.85;10.75;;;;;;;;;;5049711;28;42983;-78
2021/12/21 07:26:26;;;;;;;22.25;9.23;;;;;;;;;;5048191;28;44781;-78
2021/12/21 07:28:53;;;;;;;24.90;9.07;;;;;;;;;;5049782;28;44987;-79
2021/12/21 07:31:20;;;;;;;24.58;9.50;;;;;;;;;;5049372;28;45206;-79
2021/12/21 07:33:47;;;;;;;20.33;8.93;;;;;;;;;;5048481;28;44756;-79
2021/12/21 07:36:13;;;;;;;23.50;9.02;;;;;;;;;;5049501;28;44968;-79
2021/12/21 07:38:40;;;;;;;23.23;9.68;;;;;;;;;;5043873;28;36002;-78
2021/12/21 07:41:07;;;;;;;19.65;9.05;;;;;;;;;;5046281;28;44950;-78
2021/12/21 07:43:34;;;;;;;14.27;8.75;;;;;;;;;;5047839;28;44908;-78
2021/12/21 07:46:00;;;;;;;20.88;8.77;;;;;;;;;;5047542;28;44685;-78
2021/12/21 07:48:27;;;;;;;14.68;8.63;;;;;;;;;;5047114;28;44973;-79
2021/12/21 07:50:55;;;;;;;16.27;9.68;;;;;;;;;;5046627;28;44560;-78
2021/12/21 07:53:22;;;;;;;21.05;9.65;;;;;;;;;;5048560;28;44698;-78
2021/12/21 07:55:49;;;;;;;21.30;9.82;;;;;;;;;;5048045;28;42964;-77
2021/12/21 07:58:16;;;;;;;19.55;9.90;;;;;;;;;;5061053;28;43978;-78
2021/12/21 08:00:42;;;;;;;23.25;11.30;;;;;;;;;;5068658;28;45014;-77
2021/12/21 08:03:09;;;;;;;26.85;11.38;;;;;;;;;;5066677;28;45131;-77
2021/12/21 08:05:37;;;;;;;22.50;11.77;;;;;;;;;;5067181;28;42670;-77
2021/12/21 08:08:15;;;;;;;21.15;11.95;;;;;;;;;;5071087;28;20049;-78
2021/12/21 08:10:52;;;;;;;23.55;11.68;;;;;;;;;;5071255;28;44957;-79
2021/12/21 08:13:21;;;;;;;25.65;11.27;;;;;;;;;;5073304;28;20118;-78
2021/12/21 08:15:48;;;;;;;28.77;12.23;;;;;;;;;;5056798;28;43942;-78
2021/12/21 08:18:15;;;;;;;30.45;12.63;;;;;;;;;;5052000;28;43046;-79
2021/12/21 08:20:42;;;;;;;26.40;11.45;;;;;;;;;;5052996;28;43724;-78
2021/12/21 08:23:09;;;;;;;25.63;11.20;;;;;;;;;;5051289;28;42978;-78
2021/12/21 08:25:36;;;;;;;21.15;11.60;;;;;;;;;;5052536;28;44723;-79
2021/12/21 08:28:07;;;;;;;29.25;12.27;;;;;;;;;;5050827;28;43881;-77
2021/12/21 08:30:33;;;;;;;28.77;11.32;;;;;;;;;;5051670;28;43142;-81
2021/12/21 08:33:02;;;;;;;18.75;11.32;;;;;;;;;;5052832;28;20064;-78
2021/12/21 08:35:29;;;;;;;25.13;12.40;;;;;;;;;;5050921;28;20148;-78
2021/12/21 08:38:07;;;;;;;25.02;12.20;;;;;;;;;;5049007;28;44915;-78
2021/12/21 08:40:39;;;;;;;29.45;12.52;;;;;;;;;;5010662;28;43397;-78
2021/12/21 08:43:11;;;;;;;25.38;10.95;;;;;;;;;;5048897;28;43002;-78
2021/12/21 08:45:39;;;;;;;20.40;12.05;;;;;;;;;;5050489;28;42728;-78
2021/12/21 08:48:06;;;;;;;26.65;13.30;;;;;;;;;;5050297;28;20467;-78
2021/12/21 08:50:33;;;;;;;24.75;13.05;;;;;;;;;;5049225;28;43921;-78
2021/12/21 08:53:00;;;;;;;21.02;11.13;;;;;;;;;;5049841;28;41258;-78
2021/12/21 08:55:27;;;;;;;29.63;12.82;;;;;;;;;;5050212;28;42981;-78
2021/12/21 08:57:54;;;;;;;27.63;12.43;;;;;;;;;;5048385;28;44312;-78
2021/12/21 09:00:21;;;;;;;31.45;13.07;;;;;;;;;;5051094;28;44407;-78
2021/12/21 09:02:49;;;;;;;29.92;13.15;;;;;;;;;;5050934;28;45038;-79
2021/12/21 09:05:19;;;;;;;27.92;13.15;;;;;;;;;;5051014;28;44110;-79
2021/12/21 09:07:49;;;;;;;26.25;12.55;;;;;;;;;;5050492;28;45012;-79
2021/12/21 09:10:19;;;;;;;33.38;15.18;;;;;;;;;;5051125;28;42773;-79
2021/12/21 09:12:46;;;;;;;34.45;16.60;;;;;;;;;;5050119;28;44794;-78
2021/12/21 09:15:13;;;;;;;38.70;20.10;;;;;;;;;;5041508;28;44748;-79
2021/12/21 09:17:41;;;;;;;48.05;25.08;;;;;;;;;;5030551;28;45010;-78
2021/12/21 09:20:09;;;;;;;46.38;26.38;;;;;;;;;;5031004;28;43919;-78
2021/12/21 09:22:44;;;;;;;45.70;24.15;;;;;;;;;;5035895;28;43937;-78
2021/12/21 09:25:11;;;;;;;44.22;22.88;;;;;;;;;;5037822;28;42998;-78
2021/12/21 09:27:38;;;;;;;38.22;21.35;;;;;;;;;;5038419;28;44608;-79
2021/12/21 09:30:07;;;;;;;42.28;22.70;;;;;;;;;;5040141;28;43889;-80
2021/12/21 09:32:33;;;;;;;41.83;24.52;;;;;;;;;;5038317;28;44200;-79
2021/12/21 09:35:00;;;;;;;44.58;24.45;;;;;;;;;;5040358;28;44242;-80
2021/12/21 09:37:27;;;;;;;47.22;24.90;;;;;;;;;;5038727;28;42901;-78
2021/12/21 09:39:54;;;;;;;52.78;25.42;;;;;;;;;;5038957;28;42789;-79
2021/12/21 09:42:22;;;;;;;39.22;23.92;;;;;;;;;;5038356;28;45056;-79
2021/12/21 09:44:49;;;;;;;56.45;27.88;;;;;;;;;;5051366;28;43919;-81
2021/12/21 09:47:16;;;;;;;61.17;29.17;;;;;;;;;;5042794;28;43731;-81
2021/12/21 09:49:44;;;;;;;50.83;26.80;;;;;;;;;;5038697;28;43004;-81
2021/12/21 09:52:12;;;;;;;56.00;28.95;;;;;;;;;;5037434;28;44709;-82
2021/12/21 09:54:39;;;;;;;43.42;22.98;;;;;;;;;;5039567;28;44880;-82
2021/12/21 09:57:07;;;;;;;59.67;32.00;;;;;;;;;;5042675;28;44979;-84
2021/12/21 09:59:35;;;;;;;44.30;25.20;;;;;;;;;;5040429;28;42533;-83
2021/12/21 10:02:02;;;;;;;41.20;23.38;;;;;;;;;;5038300;28;42971;-84
2021/12/21 10:04:29;;;;;;;40.80;24.58;;;;;;;;;;5044910;28;45965;-83
2021/12/21 10:07:01;;;;;;;33.85;18.77;;;;;;;;;;5048465;28;45072;-83
2021/12/21 10:09:34;;;;;;;35.58;18.45;;;;;;;;;;5046577;28;45384;-84
2021/12/21 10:12:04;;;;;;;27.27;15.98;;;;;;;;;;5056718;28;44766;-84
2021/12/21 10:14:31;;;;;;;32.20;16.23;;;;;;;;;;5064825;28;20064;-84
2021/12/21 10:16:59;;;;;;;33.15;16.27;;;;;;;;;;5048532;28;44868;-83
2021/12/21 10:19:26;;;;;;;30.90;16.10;;;;;;;;;;5049380;28;43750;-84
2021/12/21 10:21:53;;;;;;;25.15;14.10;;;;;;;;;;5047966;28;45043;-84
2021/12/21 10:24:27;;;;;;;29.05;15.60;;;;;;;;;;5049318;28;43977;-84
2021/12/21 10:27:06;;;;;;;26.33;14.50;;;;;;;;;;5048374;28;42691;-84
2021/12/21 10:29:44;;;;;;;32.35;15.43;;;;;;;;;;5048000;28;43788;-84
2021/12/21 10:32:21;;;;;;;34.17;17.13;;;;;;;;;;5048977;28;44093;-84
2021/12/21 10:35:02;;;;;;;31.80;17.70;;;;;;;;;;5049328;28;43832;-84
2021/12/21 10:37:30;;;;;;;41.67;22.33;;;;;;;;;;5047623;28;44917;-84
2021/12/21 10:40:23;;;;;;;43.85;18.65;;;;;;;;;;5049222;28;20061;-84
2021/12/21 10:43:03;;;;;;;40.85;20.50;;;;;;;;;;5047571;28;43427;-83
2021/12/21 10:45:34;;;;;;;36.53;18.13;;;;;;;;;;5049094;28;42364;-84
2021/12/21 10:48:03;;;;;;;37.63;17.25;;;;;;;;;;5047941;28;44022;-84
2021/12/21 10:50:32;;;;;;;30.90;18.13;;;;;;;;;;5048223;28;43646;-84
2021/12/21 10:53:00;;;;;;;37.22;17.38;;;;;;;;;;5047994;28;44255;-84
2021/12/21 10:55:28;;;;;;;31.70;17.13;;;;;;;;;;5049358;28;44803;-84
2021/12/21 10:58:06;;;;;;;31.73;16.40;;;;;;;;;;5047419;28;43138;-85
2021/12/21 11:00:34;;;;;;;26.40;15.85;;;;;;;;;;5048833;28;43797;-84
2021/12/21 11:03:01;;;;;;;35.38;17.77;;;;;;;;;;5048176;28;44363;-87
2021/12/21 11:05:34;;;;;;;26.05;15.10;;;;;;;;;;5048117;28;42846;-84
2021/12/21 11:08:14;;;;;;;37.17;16.75;;;;;;;;;;5047823;28;43615;-84
2021/12/21 11:10:48;;;;;;;33.25;16.58;;;;;;;;;;5047663;28;44266;-84
2021/12/21 11:13:15;;;;;;;33.25;17.33;;;;;;;;;;5047714;28;44186;-85
2021/12/21 11:15:44;;;;;;;36.25;17.08;;;;;;;;;;5048734;28;42767;-84
2021/12/21 11:18:16;;;;;;;29.92;16.80;;;;;;;;;;5044192;28;42700;-84
2021/12/21 11:20:45;;;;;;;31.98;17.02;;;;;;;;;;5036661;28;44761;-84
2021/12/21 11:23:13;;;;;;;32.35;17.90;;;;;;;;;;5036811;28;44011;-84
2021/12/21 11:25:41;;;;;;;32.72;16.75;;;;;;;;;;5036144;28;44203;-84
2021/12/21 11:28:10;;;;;;;30.77;18.05;;;;;;;;;;5036693;28;43742;-84
2021/12/21 11:30:37;;;;;;;37.70;17.38;;;;;;;;;;5036020;28;44863;-84
2021/12/21 11:33:06;;;;;;;33.63;16.25;;;;;;;;;;5037886;28;43822;-85
2021/12/21 11:38:08;;;;;;;33.20;16.58;;;;;;;;;;5036111;28;42531;-86
2021/12/21 11:40:42;;;;;;;39.08;18.23;;;;;;;;;;5036560;28;20042;-85
2021/12/21 11:43:18;;;;;;;34.70;16.95;;;;;;;;;;5029629;28;42940;-87
2021/12/21 11:45:51;;;;;;;30.02;16.60;;;;;;;;;;5027462;28;45873;-85
2021/12/21 11:48:21;;;;;;;35.65;17.98;;;;;;;;;;5028056;28;43659;-86
2021/12/21 11:50:49;;;;;;;29.63;16.63;;;;;;;;;;5027532;28;42815;-86
2021/12/21 11:53:21;;;;;;;31.73;16.83;;;;;;;;;;5027786;28;20053;-82
2021/12/21 11:55:51;;;;;;;30.80;15.65;;;;;;;;;;5026995;28;20050;-81
2021/12/21 11:58:18;;;;;;;39.15;17.50;;;;;;;;;;5028028;28;43798;-86
2021/12/21 12:00:47;;;;;;;29.05;16.70;;;;;;;;;;5027604;28;44980;-82
2021/12/21 12:03:15;;;;;;;25.65;15.90;;;;;;;;;;5026082;28;42900;-81
2021/12/21 12:05:50;;;;;;;32.72;14.63;;;;;;;;;;5028698;28;44911;-81
2021/12/21 12:08:16;;;;;;;28.38;15.00;;;;;;;;;;5027009;28;43886;-81
2021/12/21 12:10:50;;;;;;;32.55;14.68;;;;;;;;;;5029196;28;43969;-81
2021/12/21 12:13:24;;;;;;;25.60;14.80;;;;;;;;;;5028047;28;44965;-81
2021/12/21 12:15:52;;;;;;;33.80;17.00;;;;;;;;;;5030609;28;44787;-81
2021/12/21 12:18:20;;;;;;;28.33;15.70;;;;;;;;;;5029814;28;44117;-81
2021/12/21 12:20:47;;;;;;;26.73;14.98;;;;;;;;;;5033372;28;42928;-81
2021/12/21 12:23:16;;;;;;;30.02;15.25;;;;;;;;;;5028667;28;43624;-81
2021/12/21 12:25:56;;;;;;;30.23;14.07;;;;;;;;;;5029025;28;45168;-81
2021/12/21 12:28:27;;;;;;;33.85;14.02;;;;;;;;;;5027069;28;42736;-81
2021/12/21 12:30:54;;;;;;;27.30;14.20;;;;;;;;;;5027495;28;43367;-81
2021/12/21 12:33:21;;;;;;;27.42;15.50;;;;;;;;;;5028105;28;133426;-81
2021/12/21 12:35:48;;;;;;;30.73;14.20;;;;;;;;;;5040981;28;42185;-81
2021/12/21 12:38:15;;;;;;;26.38;13.70;;;;;;;;;;5041254;28;43852;-81
2021/12/21 12:40:43;;;;;;;28.30;14.43;;;;;;;;;;5043819;28;32768;-80
2021/12/21 12:43:12;;;;;;;25.33;14.48;;;;;;;;;;5042019;28;42321;-81
2021/12/21 12:45:38;;;;;;;;;;;;;;;;;;5044846;28;43889;-81
2021/12/21 12:48:17;;;;;;;27.08;15.02;;;;;;;;;;5042448;28;45356;-80
2021/12/21 12:50:45;;;;;;;29.40;13.73;;;;;;;;;;5041866;28;44301;-81
2021/12/21 12:53:11;;;;;;;21.90;12.80;;;;;;;;;;5044241;28;43976;-81
2021/12/21 12:55:40;;;;;;;28.27;14.15;;;;;;;;;;5043657;28;43651;-81
2021/12/21 12:58:28;;;;;;;32.95;15.25;;;;;;;;;;5045930;28;20100;-80
2021/12/21 13:01:03;;;;;;;30.77;15.95;;;;;;;;;;5047814;28;42272;-80
2021/12/21 13:03:34;;;;;;;38.83;16.05;;;;;;;;;;5044181;28;45101;-80
2021/12/21 13:06:07;;;;;;;32.20;15.75;;;;;;;;;;5041958;28;45144;-80
2021/12/21 13:08:34;;;;;;;26.35;15.60;;;;;;;;;;5042618;28;44799;-81
2021/12/21 13:11:01;;;;;;;23.00;14.93;;;;;;;;;;5042152;28;36289;-84
2021/12/21 13:13:35;;;;;;;26.40;14.13;;;;;;;;;;5043101;28;44110;-82
2021/12/21 13:16:09;;;;;;;24.00;13.80;;;;;;;;;;5041367;28;44786;-84
2021/12/21 13:18:42;;;;;;;27.65;15.25;;;;;;;;;;5042437;28;43953;-80
2021/12/21 13:21:23;;;;;;;25.30;14.23;;;;;;;;;;5043920;28;44890;-80
2021/12/21 13:23:51;;;;;;;21.00;13.25;;;;;;;;;;5042893;28;42623;-80
2021/12/21 13:26:19;;;;;;;25.15;13.35;;;;;;;;;;5042468;28;45243;-80
2021/12/21 13:28:47;;;;;;;26.75;12.75;;;;;;;;;;5042521;28;44487;-80
2021/12/21 13:31:15;;;;;;;24.67;13.68;;;;;;;;;;5042809;28;44108;-80
2021/12/21 13:33:42;;;;;;;23.92;11.55;;;;;;;;;;5043171;28;44897;-80
2021/12/21 13:36:09;;;;;;;21.95;12.38;;;;;;;;;;5039526;28;44684;-82
2021/12/21 13:38:36;;;;;;;22.27;11.55;;;;;;;;;;5041628;28;41617;-83
2021/12/21 13:41:15;;;;;;;20.63;11.80;;;;;;;;;;5044126;28;20049;-79
2021/12/21 13:43:53;;;;;;;21.15;11.05;;;;;;;;;;5044187;28;45221;-81
2021/12/21 13:46:20;;;;;;;27.83;11.23;;;;;;;;;;5044711;28;43896;-81
2021/12/21 13:48:54;;;;;;;21.35;10.60;;;;;;;;;;5043240;28;43589;-80
2021/12/21 13:51:21;;;;;;;17.25;10.32;;;;;;;;;;5042167;28;43664;-80
2021/12/21 13:53:50;;;;;;;19.27;11.80;;;;;;;;;;5041738;28;44974;-80
2021/12/21 13:56:19;;;;;;;25.60;11.20;;;;;;;;;;5042887;28;44839;-81
2021/12/21 13:58:46;;;;;;;25.95;11.48;;;;;;;;;;5048246;28;43824;-80
2021/12/21 14:01:16;;;;;;;24.73;11.50;;;;;;;;;;5045583;28;45167;-79
2021/12/21 14:03:50;;;;;;;20.85;11.13;;;;;;;;;;5047218;28;45699;-83
2021/12/21 14:06:21;;;;;;;28.08;11.80;;;;;;;;;;5048071;28;44186;-80
2021/12/21 14:08:50;;;;;;;28.63;11.10;;;;;;;;;;5049260;28;42878;-80
2021/12/21 14:11:18;;;;;;;22.33;11.30;;;;;;;;;;5048766;28;43286;-80
2021/12/21 14:13:46;;;;;;;18.55;10.07;;;;;;;;;;5049395;28;44965;-80
2021/12/21 14:16:13;;;;;;;;;;;;;;;;;;5050174;28;42747;-80
2021/12/21 14:18:45;;;;;;;21.55;10.50;;;;;;;;;;5049478;28;45427;-80
2021/12/21 14:21:13;;;;;;;25.85;12.77;;;;;;;;;;5041800;28;44856;-80
2021/12/21 14:23:42;;;;;;;24.80;10.32;;;;;;;;;;5038686;28;43730;-80
2021/12/21 14:26:10;;;;;;;20.58;10.77;;;;;;;;;;5037342;28;45913;-80
2021/12/21 14:28:37;;;;;;;;;;;;;;;;;;5039670;28;42765;-80
2021/12/21 14:31:03;;;;;;;19.10;10.85;;;;;;;;;;5037467;28;44478;-80
2021/12/21 14:33:48;;;;;;;18.55;11.30;;;;;;;;;;5036632;28;45002;-80
2021/12/21 14:36:16;;;;;;;24.73;13.07;;;;;;;;;;5044537;28;43881;-80
2021/12/21 14:38:50;;;;;;;26.97;13.50;;;;;;;;;;5039248;28;43847;-79
2021/12/21 14:41:24;;;;;;;17.77;10.63;;;;;;;;;;5038752;28;44983;-80
2021/12/21 14:44:06;;;;;;;18.08;11.80;;;;;;;;;;5038332;28;42621;-80
2021/12/21 14:46:51;;;;;;;23.25;12.65;;;;;;;;;;5037160;28;45087;-80
2021/12/21 14:49:24;;;;;;;22.08;11.00;;;;;;;;;;5036131;28;45274;-80
2021/12/21 14:51:51;;;;;;;21.52;12.68;;;;;;;;;;5037800;28;44762;-81
2021/12/21 14:54:28;;;;;;;21.10;13.23;;;;;;;;;;5060903;28;42505;-80
2021/12/21 14:57:07;;;;;;;25.52;12.05;;;;;;;;;;5066453;28;43998;-80
2021/12/21 14:59:35;;;;;;;24.77;12.77;;;;;;;;;;5068885;28;44850;-80
2021/12/21 15:02:10;;;;;;;29.33;12.80;;;;;;;;;;5030245;28;133215;-79
2021/12/21 15:04:41;;;;;;;24.13;13.45;;;;;;;;;;5036771;28;43716;-80
2021/12/21 15:07:08;;;;;;;21.38;12.23;;;;;;;;;;5036245;28;45004;-79
2021/12/21 15:09:34;;;;;;;18.55;12.23;;;;;;;;;;5035842;28;42987;-79
2021/12/21 15:12:01;;;;;;;25.60;14.07;;;;;;;;;;5035289;28;43661;-80
2021/12/21 15:14:28;;;;;;;20.27;13.07;;;;;;;;;;5036151;28;45003;-79
2021/12/21 15:16:55;;;;;;;21.40;12.40;;;;;;;;;;5040616;28;42845;-79
2021/12/21 15:19:21;;;;;;;21.52;11.93;;;;;;;;;;5042820;28;45703;-79
2021/12/21 15:21:48;;;;;;;21.58;13.00;;;;;;;;;;5042498;28;42937;-79
2021/12/21 15:24:15;;;;;;;19.63;12.30;;;;;;;;;;5041772;28;42608;-79
2021/12/21 15:26:41;;;;;;;20.88;13.18;;;;;;;;;;5042888;28;45050;-79
2021/12/21 15:29:08;;;;;;;22.55;12.82;;;;;;;;;;5042845;28;42872;-80
2021/12/21 15:31:35;;;;;;;23.83;13.63;;;;;;;;;;5041585;28;42604;-79
2021/12/21 15:34:01;;;;;;;19.17;12.75;;;;;;;;;;5043274;28;41620;-80
2021/12/21 15:36:28;;;;;;;26.35;12.95;;;;;;;;;;5041607;28;44957;-79